createdAt,value
2022-09-07T00:01:01.796Z,100202.22
2022-09-07T00:03:29.766Z,100206.06
2022-09-07T00:05:59.186Z,100204.41
2022-09-07T00:08:28.069Z,100195.81
2022-09-07T00:10:57.749Z,100209.59
2022-09-07T00:13:27.948Z,100203.84
2022-09-07T00:15:56.534Z,100209.91
2022-09-07T00:18:24.778Z,100210.69
2022-09-07T00:21:00.936Z,100209.91
2022-09-07T00:23:30.045Z,100211.25
2022-09-07T00:26:01.673Z,100211.00
2022-09-07T00:28:29.961Z,100204.72
2022-09-07T00:30:58.085Z,100199.22
2022-09-07T00:33:26.691Z,100193.13
2022-09-07T00:35:54.912Z,100189.56
2022-09-07T00:38:24.296Z,100203.88
2022-09-07T00:40:52.265Z,100204.47
2022-09-07T00:43:32.553Z,100205.50
2022-09-07T00:46:00.695Z,100204.47
2022-09-07T00:48:34.685Z,100198.66
2022-09-07T00:51:06.379Z,100198.66
2022-09-07T00:53:41.117Z,100205.56
2022-09-07T00:56:10.756Z,100197.31
2022-09-07T00:58:42.186Z,100196.78
2022-09-07T01:01:10.274Z,100188.56
2022-09-07T01:03:41.955Z,100181.16
2022-09-07T01:06:16.679Z,100191.31
2022-09-07T01:08:49.748Z,100187.72
2022-09-07T01:11:19.533Z,100183.31
2022-09-07T01:13:49.872Z,100194.06
2022-09-07T01:16:28.859Z,100224.56
2022-09-07T01:19:11.006Z,100226.19
2022-09-07T01:21:58.224Z,100212.78
2022-09-07T01:24:42.771Z,100204.84
2022-09-07T01:27:50.369Z,100206.22
2022-09-07T01:30:20.618Z,100206.53
2022-09-07T01:33:06.496Z,100204.59
2022-09-07T01:35:44.873Z,100195.50
2022-09-07T01:38:21.394Z,100182.88
2022-09-07T01:40:58.159Z,100171.34
2022-09-07T01:43:36.442Z,100175.44
2022-09-07T01:46:08.798Z,100182.31
2022-09-07T01:48:40.648Z,100174.03
2022-09-07T01:51:13.497Z,100158.13
2022-09-07T01:53:44.748Z,100148.22
2022-09-07T01:56:16.589Z,100138.88
2022-09-07T01:58:49.043Z,100143.84
2022-09-07T02:01:26.382Z,100147.09
2022-09-07T02:04:00.270Z,100158.09
2022-09-07T02:06:35.898Z,100160.84
2022-09-07T02:09:07.972Z,100177.56
2022-09-07T02:11:38.613Z,100189.09
2022-09-07T02:14:12.666Z,100199.53
2022-09-07T02:16:46.113Z,100217.94
2022-09-07T02:19:18.982Z,100230.41
2022-09-07T02:21:51.247Z,100238.91
2022-09-07T02:24:24.602Z,100248.22
2022-09-07T02:26:54.449Z,100245.50
2022-09-07T02:29:25.226Z,100242.16
2022-09-07T02:31:54.956Z,100239.44
2022-09-07T02:34:22.899Z,100236.97
2022-09-07T02:36:52.429Z,100244.97
2022-09-07T02:39:20.328Z,100245.81
2022-09-07T02:41:48.368Z,100255.50
2022-09-07T02:44:20.548Z,100316.81
2022-09-07T02:47:04.274Z,100321.47
2022-09-07T02:49:47.014Z,100291.16
2022-09-07T02:52:26.662Z,100295.53
2022-09-07T02:55:06.511Z,100266.66
2022-09-07T02:57:45.475Z,100265.56
2022-09-07T03:00:17.970Z,100258.44
2022-09-07T03:02:55.332Z,100266.66
2022-09-07T03:05:29.127Z,100240.25
2022-09-07T03:08:02.258Z,100230.09
2022-09-07T03:10:31.101Z,100218.19
2022-09-07T03:12:58.963Z,100227.53
2022-09-07T03:15:29.028Z,100227.25
2022-09-07T03:17:58.557Z,100208.03
2022-09-07T03:20:26.523Z,100202.81
2022-09-07T03:22:54.419Z,100189.66
2022-09-07T03:25:22.857Z,100166.25
2022-09-07T03:27:50.795Z,100174.47
2022-09-07T03:30:18.796Z,100175.00
2022-09-07T03:32:47.491Z,100179.09
2022-09-07T03:35:17.189Z,100171.84
2022-09-07T03:37:45.492Z,100152.53
2022-09-07T03:40:15.988Z,100162.19
2022-09-07T03:42:44.277Z,100155.91
2022-09-07T03:45:12.454Z,100146.53
2022-09-07T03:47:40.762Z,100140.19
2022-09-07T03:50:09.448Z,100140.44
2022-09-07T03:52:39.556Z,100140.66
2022-09-07T03:55:07.963Z,100140.59
2022-09-07T03:57:36.075Z,100149.06
2022-09-07T04:00:05.387Z,100154.28
2022-09-07T04:02:33.473Z,100154.84
2022-09-07T04:05:01.417Z,100158.94
2022-09-07T04:07:29.297Z,100151.03
2022-09-07T04:09:58.689Z,100169.41
2022-09-07T04:12:26.595Z,100169.16
2022-09-07T04:14:54.478Z,100173.63
2022-09-07T04:17:22.339Z,100166.75
2022-09-07T04:19:50.220Z,100160.50
2022-09-07T04:22:18.121Z,100162.34
2022-09-07T04:24:46.021Z,100151.63
2022-09-07T04:27:15.295Z,100156.78
2022-09-07T04:29:43.187Z,100155.94
2022-09-07T04:32:15.556Z,100163.72
2022-09-07T04:34:43.794Z,100168.06
2022-09-07T04:37:12.751Z,100163.91
2022-09-07T04:39:40.784Z,100158.16
2022-09-07T04:42:08.824Z,100155.88
2022-09-07T04:44:38.117Z,100167.41
2022-09-07T04:47:06.209Z,100162.75
2022-09-07T04:49:34.139Z,100161.59
2022-09-07T04:52:03.173Z,100168.25
2022-09-07T04:54:31.102Z,100166.84
2022-09-07T04:56:59.022Z,100169.00
2022-09-07T04:59:27.035Z,100170.38
2022-09-07T05:01:56.359Z,100167.66
2022-09-07T05:04:24.301Z,100172.91
2022-09-07T05:06:54.266Z,100172.63
2022-09-07T05:09:22.267Z,100175.94
2022-09-07T05:11:50.167Z,100193.50
2022-09-07T05:14:18.100Z,100185.84
2022-09-07T05:16:46.175Z,100189.69
2022-09-07T05:19:16.004Z,100197.63
2022-09-07T05:21:43.888Z,100195.47
2022-09-07T05:24:11.905Z,100193.00
2022-09-07T05:26:40.251Z,100194.19
2022-09-07T05:31:57.129Z,100201.38
2022-09-07T05:36:55.949Z,100207.13
2022-09-07T05:39:24.027Z,100203.84
2022-09-07T05:41:51.965Z,100204.09
2022-09-07T05:47:08.290Z,100205.53
2022-09-07T05:49:37.593Z,100206.13
2022-09-07T05:52:05.717Z,100212.53
2022-09-07T05:54:33.638Z,100202.44
2022-09-07T05:57:03.133Z,100205.50
2022-09-07T05:59:31.085Z,100206.63
2022-09-07T06:01:59.630Z,100204.22
2022-09-07T06:04:27.710Z,100207.56
2022-09-07T06:12:33.372Z,100215.88
2022-09-07T06:15:01.586Z,100212.84
2022-09-07T06:17:29.908Z,100213.72
2022-09-07T06:19:57.945Z,100202.19
2022-09-07T06:22:30.767Z,100201.09
2022-09-07T06:24:59.653Z,100209.63
2022-09-07T06:27:27.803Z,100214.59
2022-09-07T06:29:55.841Z,100204.13
2022-09-07T06:35:12.289Z,100213.75
2022-09-07T06:37:42.267Z,100220.34
2022-09-07T06:40:12.043Z,100216.25
2022-09-07T06:42:40.039Z,100221.72
2022-09-07T06:45:10.064Z,100225.84
2022-09-07T06:47:38.131Z,100221.41
2022-09-07T06:50:06.556Z,100204.91
2022-09-07T06:55:27.606Z,100224.72
2022-09-07T06:57:55.645Z,100215.63
2022-09-07T07:00:23.814Z,100206.25
2022-09-07T07:02:51.946Z,100224.38
2022-09-07T07:05:19.956Z,100224.63
2022-09-07T07:07:48.054Z,100219.06
2022-09-07T07:10:18.763Z,100222.38
2022-09-07T07:12:50.235Z,100226.75
2022-09-07T07:15:18.283Z,100223.91
2022-09-07T07:17:51.946Z,100221.47
2022-09-07T07:20:24.293Z,100224.16
2022-09-07T07:22:52.763Z,100233.81
2022-09-07T07:25:21.242Z,100225.31
2022-09-07T07:27:50.977Z,100234.84
2022-09-07T07:30:20.028Z,100226.44
2022-09-07T07:32:50.162Z,100223.81
2022-09-07T07:35:18.395Z,100222.81
2022-09-07T07:37:48.078Z,100214.00
2022-09-07T07:40:17.770Z,100219.94
2022-09-07T07:42:50.172Z,100220.03
2022-09-07T07:48:06.633Z,100237.38
2022-09-07T07:50:34.935Z,100242.25
2022-09-07T07:55:51.366Z,100254.25
2022-09-07T07:58:20.860Z,100250.59
2022-09-07T08:00:56.624Z,100248.59
2022-09-07T08:03:26.142Z,100249.91
2022-09-07T08:05:54.183Z,100235.22
2022-09-07T08:08:23.076Z,100255.75
2022-09-07T08:10:51.422Z,100246.31
2022-09-07T08:13:21.328Z,100253.34
2022-09-07T08:15:49.388Z,100253.94
2022-09-07T08:18:18.521Z,100235.09
2022-09-07T08:20:49.759Z,100252.78
2022-09-07T08:23:20.269Z,100260.56
2022-09-07T08:25:51.971Z,100256.34
2022-09-07T08:28:24.801Z,100266.06
2022-09-07T08:30:52.694Z,100247.31
2022-09-07T08:33:21.379Z,100253.91
2022-09-07T08:35:56.276Z,100261.63
2022-09-07T08:38:24.568Z,100267.59
2022-09-07T08:40:53.033Z,100267.81
2022-09-07T08:43:45.856Z,100268.66
2022-09-07T08:46:27.776Z,100282.84
2022-09-07T08:48:57.210Z,100273.47
2022-09-07T08:51:38.166Z,100281.97
2022-09-07T08:54:06.839Z,100271.38
2022-09-07T08:56:39.539Z,100253.53
2022-09-07T08:59:20.161Z,100288.81
2022-09-07T09:02:26.885Z,100285.13
2022-09-07T09:05:16.422Z,100273.88
2022-09-07T09:07:31.740Z,100294.69
2022-09-07T09:10:20.747Z,100295.59
2022-09-07T09:13:04.340Z,100293.03
2022-09-07T09:15:45.413Z,100284.38
2022-09-07T09:18:28.804Z,100289.69
2022-09-07T09:20:58.136Z,100286.50
2022-09-07T09:23:28.830Z,100285.06
2022-09-07T09:25:59.060Z,100286.50
2022-09-07T09:28:28.948Z,100284.25
2022-09-07T09:31:01.218Z,100288.75
2022-09-07T09:33:29.895Z,100292.00
2022-09-07T09:36:00.439Z,100272.66
2022-09-07T09:38:39.435Z,100283.25
2022-09-07T09:41:09.694Z,100281.13
2022-09-07T09:43:42.656Z,100276.06
2022-09-07T09:46:26.971Z,100272.22
2022-09-07T09:48:58.289Z,100264.31
2022-09-07T09:54:25.636Z,100254.97
2022-09-07T09:56:53.386Z,100255.59
2022-09-07T10:05:31.200Z,100240.72
2022-09-07T10:07:59.311Z,100235.16
2022-09-07T10:10:28.772Z,100216.69
2022-09-07T10:12:57.542Z,100207.69
2022-09-07T10:15:39.975Z,100224.69
2022-09-07T10:18:21.274Z,100225.16
2022-09-07T10:20:49.747Z,100229.25
2022-09-07T10:23:23.083Z,100221.78
2022-09-07T10:25:51.208Z,100215.72
2022-09-07T10:28:21.743Z,100205.13
2022-09-07T10:31:15.151Z,100204.31
2022-09-07T10:36:47.456Z,100192.50
2022-09-07T10:39:19.365Z,100196.75
2022-09-07T10:42:01.516Z,100179.44
2022-09-07T10:44:43.690Z,100191.06
2022-09-07T10:47:24.839Z,100189.66
2022-09-07T10:52:57.307Z,100187.41
2022-09-07T10:55:32.844Z,100159.25
2022-09-07T10:58:16.985Z,100182.03
2022-09-07T11:00:59.294Z,100159.00
2022-09-07T11:03:54.303Z,100179.38
2022-09-07T11:06:30.979Z,100177.69
2022-09-07T11:09:48.152Z,100173.53
2022-09-07T11:12:20.749Z,100165.19
2022-09-07T11:14:58.894Z,100166.25
2022-09-07T11:17:29.181Z,100166.84
2022-09-07T11:20:10.239Z,100166.03
2022-09-07T11:22:47.385Z,100165.84
2022-09-07T11:25:36.640Z,100151.97
2022-09-07T11:28:13.874Z,100152.34
2022-09-07T11:30:46.917Z,100155.38
2022-09-07T11:33:20.806Z,100153.50
2022-09-07T11:35:54.124Z,100155.97
2022-09-07T11:38:30.621Z,100152.84
2022-09-07T11:41:23.234Z,100158.25
2022-09-07T11:43:58.259Z,100153.81
2022-09-07T11:46:33.711Z,100141.88
2022-09-07T11:49:04.506Z,100142.69
2022-09-07T11:51:41.608Z,100135.81
2022-09-07T11:54:26.044Z,100139.44
2022-09-07T11:56:59.150Z,100143.97
2022-09-07T11:59:39.906Z,100141.03
2022-09-07T12:02:59.451Z,100140.19
2022-09-07T12:05:42.522Z,100137.28
2022-09-07T12:08:26.631Z,100129.72
2022-09-07T12:11:23.502Z,100119.91
2022-09-07T12:14:16.386Z,100127.09
2022-09-07T12:17:01.647Z,100104.81
2022-09-07T12:19:30.120Z,100099.94
2022-09-07T12:21:59.514Z,100092.88
2022-09-07T12:24:49.927Z,100094.28
2022-09-07T12:27:39.296Z,100092.16
2022-09-07T12:30:52.838Z,100082.81
2022-09-07T12:33:39.572Z,100077.28
2022-09-07T12:36:44.074Z,100086.75
2022-09-07T12:39:25.655Z,100071.81
2022-09-07T12:45:35.890Z,100065.59
2022-09-07T12:48:19.549Z,100076.22
2022-09-07T12:50:58.831Z,100084.81
2022-09-07T12:53:34.645Z,100061.47
2022-09-07T12:56:21.032Z,100062.97
2022-09-07T12:59:16.040Z,100056.31
2022-09-07T13:01:58.019Z,100079.13
2022-09-07T13:05:01.570Z,100085.19
2022-09-07T13:08:06.983Z,100086.63
2022-09-07T13:10:38.247Z,100078.41
2022-09-07T13:13:07.932Z,100073.47
2022-09-07T13:15:41.463Z,100091.34
2022-09-07T13:18:15.433Z,100107.50
2022-09-07T13:20:44.557Z,100107.59
2022-09-07T13:23:31.163Z,100103.31
2022-09-07T13:26:01.291Z,100121.47
2022-09-07T13:28:41.968Z,100131.59
2022-09-07T13:31:25.980Z,100129.75
2022-09-07T13:33:54.638Z,100124.72
2022-09-07T13:36:38.724Z,100139.50
2022-09-07T13:39:10.231Z,100135.25
2022-09-07T13:41:43.338Z,100136.88
2022-09-07T13:44:25.229Z,100139.63
2022-09-07T13:47:03.622Z,100127.47
2022-09-07T13:49:44.001Z,100125.41
2022-09-07T13:52:18.993Z,100123.03
2022-09-07T13:54:58.564Z,100120.56
2022-09-07T13:57:29.789Z,100108.78
2022-09-07T13:59:58.636Z,100111.91
2022-09-07T14:02:29.592Z,100101.47
2022-09-07T14:05:00.368Z,100104.16
2022-09-07T14:07:31.442Z,100109.50
2022-09-07T14:10:08.171Z,100105.88
2022-09-07T14:12:43.593Z,100103.78
2022-09-07T14:15:20.278Z,100085.50
2022-09-07T14:17:49.666Z,100077.28
2022-09-07T14:20:19.190Z,100097.28
2022-09-07T14:22:53.220Z,100093.38
2022-09-07T14:25:22.721Z,100091.00
2022-09-07T14:27:51.103Z,100076.13
2022-09-07T14:30:25.652Z,100083.91
2022-09-07T14:32:55.832Z,100087.00
2022-09-07T14:35:26.266Z,100077.66
2022-09-07T14:37:58.428Z,100094.66
2022-09-07T14:40:27.759Z,100088.97
2022-09-07T14:42:58.119Z,100086.44
2022-09-07T14:45:34.168Z,100082.88
2022-09-07T14:48:13.269Z,100073.22
2022-09-07T14:50:41.927Z,100074.94
2022-09-07T14:53:34.807Z,100068.75
2022-09-07T14:56:09.071Z,100072.22
2022-09-07T14:58:36.956Z,100052.53
2022-09-07T15:04:19.692Z,100061.78
2022-09-07T15:07:03.528Z,100059.06
2022-09-07T15:09:37.532Z,100047.91
2022-09-07T15:12:24.910Z,100039.66
2022-09-07T15:15:11.037Z,100041.28
2022-09-07T15:17:46.209Z,100053.44
2022-09-07T15:20:43.389Z,100045.38
2022-09-07T15:23:13.388Z,100039.00
2022-09-07T15:25:48.224Z,100034.44
2022-09-07T15:34:02.107Z,100023.47
2022-09-07T15:36:31.961Z,100011.91
2022-09-07T15:39:00.693Z,100010.47
2022-09-07T15:41:30.272Z,99995.44
2022-09-07T15:43:58.673Z,100009.66
2022-09-07T15:46:27.380Z,100002.06
2022-09-07T15:48:56.922Z,100014.38
2022-09-07T15:54:14.620Z,100014.44
2022-09-07T15:57:48.374Z,100006.75
2022-09-07T15:59:32.610Z,100003.19
2022-09-07T16:02:00.773Z,100001.88
2022-09-07T16:04:28.947Z,99998.84
2022-09-07T16:06:56.920Z,100003.13
2022-09-07T16:09:24.950Z,100002.31
2022-09-07T16:11:54.493Z,99995.59
2022-09-07T16:14:22.599Z,100003.03
2022-09-07T16:19:41.083Z,99993.91
2022-09-07T16:22:09.624Z,99991.88
2022-09-07T16:24:37.775Z,100000.53
2022-09-07T16:27:07.183Z,99992.50
2022-09-07T16:29:37.926Z,100002.41
2022-09-07T16:34:54.893Z,99995.59
2022-09-07T16:37:22.673Z,99991.13
2022-09-07T16:39:51.479Z,99982.81
2022-09-07T16:42:20.784Z,99992.22
2022-09-07T16:44:49.339Z,100000.84
2022-09-07T16:47:17.340Z,99998.94
2022-09-07T16:49:45.084Z,100002.13
2022-09-07T16:52:12.872Z,100006.34
2022-09-07T16:54:40.648Z,99999.00
2022-09-07T16:57:08.560Z,99986.91
2022-09-07T16:59:37.638Z,99978.22
2022-09-07T17:02:05.446Z,99991.78
2022-09-07T17:04:33.245Z,99991.25
2022-09-07T17:07:01.013Z,99991.72
2022-09-07T17:09:28.778Z,99975.50
2022-09-07T17:11:56.567Z,99991.22
2022-09-07T17:14:24.355Z,99986.16
2022-09-07T17:16:53.577Z,99983.34
2022-09-07T17:19:30.031Z,99989.88
2022-09-07T17:21:59.654Z,99994.59
2022-09-07T17:24:27.535Z,99994.75
2022-09-07T17:26:55.398Z,99991.28
2022-09-07T17:29:23.547Z,99988.34
2022-09-07T17:34:40.558Z,99993.13
2022-09-07T17:37:09.258Z,99986.91
2022-09-07T17:39:38.602Z,99970.69
2022-09-07T17:42:06.649Z,99990.28
2022-09-07T17:44:37.970Z,99981.09
2022-09-07T17:47:07.724Z,99991.34
2022-09-07T17:49:35.656Z,99996.84
2022-09-07T17:52:03.783Z,99995.50
2022-09-07T17:54:31.954Z,99992.03
2022-09-07T17:56:59.813Z,100000.22
2022-09-07T18:02:16.926Z,99997.47
2022-09-07T18:04:44.879Z,99991.41
2022-09-07T18:07:12.724Z,100005.53
2022-09-07T18:09:40.437Z,100002.88
2022-09-07T18:12:08.361Z,100005.66
2022-09-07T18:14:36.186Z,100011.59
2022-09-07T18:17:05.015Z,100010.19
2022-09-07T18:19:34.393Z,100010.59
2022-09-07T18:22:06.564Z,100009.91
2022-09-07T18:24:37.136Z,100005.69
2022-09-07T18:27:06.368Z,100001.41
2022-09-07T18:29:35.170Z,99972.72
2022-09-07T18:32:08.873Z,99984.81
2022-09-07T18:34:41.291Z,99991.44
2022-09-07T18:37:12.143Z,99999.03
2022-09-07T18:39:41.128Z,99995.66
2022-09-07T18:42:09.323Z,100005.91
2022-09-07T18:47:28.715Z,100003.28
2022-09-07T18:49:58.956Z,100011.34
2022-09-07T18:55:21.339Z,100004.19
2022-09-07T18:57:50.128Z,100016.91
2022-09-07T19:00:20.759Z,100010.09
2022-09-07T19:02:53.421Z,100006.56
2022-09-07T19:08:11.274Z,100000.09
2022-09-07T19:10:39.944Z,99996.19
2022-09-07T19:13:07.981Z,99995.06
2022-09-07T19:15:37.684Z,99990.47
2022-09-07T19:18:07.899Z,100001.84
2022-09-07T19:20:37.607Z,100005.22
2022-09-07T19:23:06.695Z,100008.63
2022-09-07T19:25:34.578Z,100009.75
2022-09-07T19:28:02.744Z,100015.81
2022-09-07T19:30:30.603Z,100012.94
2022-09-07T19:33:03.386Z,100009.53
2022-09-07T19:35:37.971Z,100005.13
2022-09-07T19:38:05.924Z,99996.09
2022-09-07T19:40:34.445Z,99986.28
2022-09-07T19:43:03.202Z,99994.88
2022-09-07T19:45:31.113Z,99992.63
2022-09-07T19:47:59.243Z,99985.34
2022-09-07T19:50:27.097Z,99982.50
2022-09-07T19:52:56.820Z,99989.03
2022-09-07T19:55:25.199Z,99973.47
2022-09-07T19:57:53.175Z,99968.09
2022-09-07T20:00:22.602Z,99984.06
2022-09-07T20:02:51.109Z,99962.72
2022-09-07T20:05:19.432Z,99982.91
2022-09-07T20:07:47.258Z,99980.31
2022-09-07T20:10:16.734Z,99968.28
2022-09-07T20:12:44.786Z,99946.19
2022-09-07T20:15:12.934Z,99961.56
2022-09-07T20:17:41.173Z,99955.75
2022-09-07T20:20:11.131Z,99951.69
2022-09-07T20:22:41.907Z,99939.19
2022-09-07T20:25:13.405Z,99951.59
2022-09-07T20:27:43.999Z,99939.88
2022-09-07T20:30:13.584Z,99961.63
2022-09-07T20:32:41.953Z,99950.59
2022-09-07T20:35:13.686Z,99938.25
2022-09-07T20:37:41.506Z,99934.09
2022-09-07T20:40:10.598Z,99934.47
2022-09-07T20:42:39.211Z,99932.41
2022-09-07T20:45:11.550Z,99926.44
2022-09-07T20:47:40.875Z,99939.66
2022-09-07T20:50:09.734Z,99941.38
2022-09-07T20:52:40.158Z,99945.03
2022-09-07T20:55:09.481Z,99935.22
2022-09-07T20:57:37.964Z,99930.56
2022-09-07T21:00:09.376Z,99939.38
2022-09-07T21:02:39.337Z,99938.59
2022-09-07T21:05:08.732Z,99950.72
2022-09-07T21:07:39.097Z,99952.34
2022-09-07T21:10:08.263Z,99938.88
2022-09-07T21:12:37.014Z,99925.66
2022-09-07T21:15:05.726Z,99948.66
2022-09-07T21:17:33.730Z,99939.31
2022-09-07T21:20:03.895Z,99951.41
2022-09-07T21:22:32.466Z,99953.66
2022-09-07T21:25:02.012Z,99968.81
2022-09-07T21:27:38.103Z,99957.25
2022-09-07T21:30:07.465Z,99952.88
2022-09-07T21:32:35.265Z,99960.31
2022-09-07T21:35:04.539Z,99971.66
2022-09-07T21:37:32.492Z,99961.53
2022-09-07T21:40:00.288Z,99952.72
2022-09-07T21:42:28.113Z,99951.13
2022-09-07T21:44:55.866Z,99954.97
2022-09-07T21:47:23.556Z,99942.91
2022-09-07T21:49:51.880Z,99951.91
2022-09-07T21:52:20.968Z,99943.38
2022-09-07T21:54:49.717Z,99942.28
2022-09-07T21:57:17.434Z,99938.78
2022-09-07T21:59:45.413Z,99935.25
2022-09-07T22:02:13.375Z,99931.44
2022-09-07T22:04:41.584Z,99944.31
2022-09-07T22:07:09.366Z,99927.59
2022-09-07T22:09:38.462Z,99934.16
2022-09-07T22:12:06.730Z,99927.88
2022-09-07T22:14:34.602Z,99922.44
2022-09-07T22:17:02.422Z,99932.03
2022-09-07T22:19:30.136Z,99928.19
2022-09-07T22:21:58.034Z,99927.41
2022-09-07T22:24:25.865Z,99923.84
2022-09-07T22:26:55.055Z,99926.31
2022-09-07T22:29:22.853Z,99939.22
2022-09-07T22:31:50.814Z,99935.41
2022-09-07T22:34:18.829Z,99939.22
2022-09-07T22:36:47.182Z,99931.84
2022-09-07T22:39:17.037Z,99925.50
2022-09-07T22:41:46.007Z,99916.44
2022-09-07T22:44:17.053Z,99899.44
2022-09-07T22:46:46.995Z,99902.44
2022-09-07T22:49:16.901Z,99899.72
2022-09-07T22:51:45.178Z,99880.22
2022-09-07T22:54:13.259Z,99881.59
2022-09-07T22:56:41.345Z,99873.91
2022-09-07T22:59:10.527Z,99867.56
2022-09-07T23:01:40.256Z,99866.72
2022-09-07T23:04:08.864Z,99837.06
2022-09-07T23:06:38.529Z,99849.66
2022-09-07T23:09:08.346Z,99849.66
2022-09-07T23:11:36.390Z,99844.97
2022-09-07T23:14:07.063Z,99838.09
2022-09-07T23:16:35.119Z,99824.38
2022-09-07T23:19:04.603Z,99827.91
2022-09-07T23:21:32.854Z,99830.94
2022-09-07T23:24:01.646Z,99827.94
2022-09-07T23:26:31.509Z,99832.88
2022-09-07T23:29:01.803Z,99830.16
2022-09-07T23:31:31.036Z,99823.81
2022-09-07T23:33:59.713Z,99827.13
2022-09-07T23:36:29.662Z,99813.66
2022-09-07T23:38:58.992Z,99815.59
2022-09-07T23:41:27.532Z,99813.38
2022-09-07T23:43:55.882Z,99815.03
2022-09-07T23:46:24.483Z,99811.78
2022-09-07T23:48:52.525Z,99824.69
2022-09-07T23:51:24.235Z,99822.75
2022-09-07T23:53:54.318Z,99819.44
2022-09-07T23:56:24.599Z,99816.41
2022-09-07T23:58:53.245Z,99802.94
